sensor_id;sensor_type;location;lat;lon;timestamp;P1;durP1;ratioP1;P2;durP2;ratioP2
46415;SDS011;32620;51.704;7.822;2023-11-19T00:00:09;6.03;;;4.97;;
46415;SDS011;32620;51.704;7.822;2023-11-19T00:02:39;6.78;;;5.10;;
46415;SDS011;32620;51.704;7.822;2023-11-19T00:05:06;5.40;;;4.80;;
46415;SDS011;32620;51.704;7.822;2023-11-19T00:07:36;6.93;;;4.60;;
46415;SDS011;32620;51.704;7.822;2023-11-19T00:10:06;11.95;;;4.90;;
46415;SDS011;32620;51.704;7.822;2023-11-19T00:12:34;6.88;;;4.22;;
46415;SDS011;32620;51.704;7.822;2023-11-19T00:15:01;8.70;;;4.78;;
46415;SDS011;32620;51.704;7.822;2023-11-19T00:17:26;6.65;;;4.72;;
46415;SDS011;32620;51.704;7.822;2023-11-19T00:19:52;6.78;;;4.30;;
46415;SDS011;32620;51.704;7.822;2023-11-19T00:22:17;7.15;;;4.38;;
46415;SDS011;32620;51.704;7.822;2023-11-19T00:24:43;7.85;;;4.18;;
46415;SDS011;32620;51.704;7.822;2023-11-19T00:27:09;7.88;;;4.80;;
46415;SDS011;32620;51.704;7.822;2023-11-19T00:29:35;6.70;;;5.55;;
46415;SDS011;32620;51.704;7.822;2023-11-19T00:32:01;8.70;;;6.00;;
46415;SDS011;32620;51.704;7.822;2023-11-19T00:34:27;11.30;;;8.50;;
46415;SDS011;32620;51.704;7.822;2023-11-19T00:36:52;12.75;;;9.75;;
46415;SDS011;32620;51.704;7.822;2023-11-19T00:39:20;13.40;;;10.00;;
46415;SDS011;32620;51.704;7.822;2023-11-19T00:41:46;10.00;;;8.57;;
46415;SDS011;32620;51.704;7.822;2023-11-19T00:44:12;12.32;;;9.68;;
46415;SDS011;32620;51.704;7.822;2023-11-19T00:46:37;12.27;;;9.88;;
46415;SDS011;32620;51.704;7.822;2023-11-19T00:49:03;16.48;;;10.60;;
46415;SDS011;32620;51.704;7.822;2023-11-19T00:51:29;10.55;;;8.40;;
46415;SDS011;32620;51.704;7.822;2023-11-19T00:53:56;10.48;;;6.70;;
46415;SDS011;32620;51.704;7.822;2023-11-19T00:56:22;6.05;;;5.45;;
46415;SDS011;32620;51.704;7.822;2023-11-19T00:58:48;7.10;;;4.70;;
46415;SDS011;32620;51.704;7.822;2023-11-19T01:01:13;5.15;;;4.15;;
46415;SDS011;32620;51.704;7.822;2023-11-19T01:03:39;4.45;;;4.05;;
46415;SDS011;32620;51.704;7.822;2023-11-19T01:06:05;4.88;;;4.13;;
46415;SDS011;32620;51.704;7.822;2023-11-19T01:08:31;4.90;;;4.40;;
46415;SDS011;32620;51.704;7.822;2023-11-19T01:10:56;5.95;;;4.85;;
46415;SDS011;32620;51.704;7.822;2023-11-19T01:13:22;7.38;;;5.18;;
46415;SDS011;32620;51.704;7.822;2023-11-19T01:15:48;5.72;;;5.13;;
46415;SDS011;32620;51.704;7.822;2023-11-19T01:18:14;6.85;;;5.85;;
46415;SDS011;32620;51.704;7.822;2023-11-19T01:20:39;6.88;;;6.03;;
46415;SDS011;32620;51.704;7.822;2023-11-19T01:23:05;6.55;;;5.50;;
46415;SDS011;32620;51.704;7.822;2023-11-19T01:25:30;9.10;;;5.72;;
46415;SDS011;32620;51.704;7.822;2023-11-19T01:27:56;8.55;;;6.30;;
46415;SDS011;32620;51.704;7.822;2023-11-19T01:30:23;8.55;;;6.60;;
46415;SDS011;32620;51.704;7.822;2023-11-19T01:32:49;8.77;;;6.80;;
46415;SDS011;32620;51.704;7.822;2023-11-19T01:35:15;8.70;;;7.03;;
46415;SDS011;32620;51.704;7.822;2023-11-19T01:37:41;7.93;;;6.90;;
46415;SDS011;32620;51.704;7.822;2023-11-19T01:40:06;14.15;;;8.40;;
46415;SDS011;32620;51.704;7.822;2023-11-19T01:42:36;15.07;;;9.75;;
46415;SDS011;32620;51.704;7.822;2023-11-19T01:45:03;15.48;;;10.48;;
46415;SDS011;32620;51.704;7.822;2023-11-19T01:47:33;20.95;;;12.23;;
46415;SDS011;32620;51.704;7.822;2023-11-19T01:50:00;16.95;;;11.63;;
46415;SDS011;32620;51.704;7.822;2023-11-19T01:52:26;16.50;;;12.35;;
46415;SDS011;32620;51.704;7.822;2023-11-19T01:54:52;19.70;;;12.52;;
46415;SDS011;32620;51.704;7.822;2023-11-19T01:57:20;18.30;;;13.15;;
46415;SDS011;32620;51.704;7.822;2023-11-19T01:59:48;19.92;;;14.32;;
46415;SDS011;32620;51.704;7.822;2023-11-19T02:02:16;20.65;;;13.57;;
46415;SDS011;32620;51.704;7.822;2023-11-19T02:04:45;20.95;;;14.32;;
46415;SDS011;32620;51.704;7.822;2023-11-19T02:07:13;20.33;;;15.00;;
46415;SDS011;32620;51.704;7.822;2023-11-19T02:09:41;21.88;;;14.32;;
46415;SDS011;32620;51.704;7.822;2023-11-19T02:12:07;21.85;;;15.43;;
46415;SDS011;32620;51.704;7.822;2023-11-19T02:14:34;22.35;;;15.57;;
46415;SDS011;32620;51.704;7.822;2023-11-19T02:17:00;22.42;;;16.55;;
46415;SDS011;32620;51.704;7.822;2023-11-19T02:19:25;21.27;;;15.65;;
46415;SDS011;32620;51.704;7.822;2023-11-19T02:21:51;20.98;;;14.98;;
46415;SDS011;32620;51.704;7.822;2023-11-19T02:24:17;24.10;;;15.70;;
46415;SDS011;32620;51.704;7.822;2023-11-19T02:26:52;18.30;;;14.55;;
46415;SDS011;32620;51.704;7.822;2023-11-19T02:29:27;19.40;;;14.27;;
46415;SDS011;32620;51.704;7.822;2023-11-19T02:31:53;17.00;;;13.75;;
46415;SDS011;32620;51.704;7.822;2023-11-19T02:34:20;16.95;;;13.35;;
46415;SDS011;32620;51.704;7.822;2023-11-19T02:36:46;18.45;;;12.20;;
46415;SDS011;32620;51.704;7.822;2023-11-19T02:39:12;14.20;;;11.40;;
46415;SDS011;32620;51.704;7.822;2023-11-19T02:41:38;16.63;;;11.52;;
46415;SDS011;32620;51.704;7.822;2023-11-19T02:44:05;11.98;;;10.32;;
46415;SDS011;32620;51.704;7.822;2023-11-19T02:46:31;11.82;;;9.70;;
46415;SDS011;32620;51.704;7.822;2023-11-19T02:48:57;12.52;;;9.15;;
46415;SDS011;32620;51.704;7.822;2023-11-19T02:51:23;13.18;;;9.35;;
46415;SDS011;32620;51.704;7.822;2023-11-19T02:53:48;12.38;;;8.73;;
46415;SDS011;32620;51.704;7.822;2023-11-19T02:56:14;12.95;;;8.35;;
46415;SDS011;32620;51.704;7.822;2023-11-19T02:58:45;11.52;;;8.02;;
46415;SDS011;32620;51.704;7.822;2023-11-19T03:01:11;11.85;;;7.32;;
46415;SDS011;32620;51.704;7.822;2023-11-19T03:03:48;8.65;;;7.28;;
46415;SDS011;32620;51.704;7.822;2023-11-19T03:06:19;13.07;;;7.78;;
46415;SDS011;32620;51.704;7.822;2023-11-19T03:08:46;12.20;;;7.78;;
46415;SDS011;32620;51.704;7.822;2023-11-19T03:11:13;11.30;;;7.28;;
46415;SDS011;32620;51.704;7.822;2023-11-19T03:13:38;11.13;;;6.78;;
46415;SDS011;32620;51.704;7.822;2023-11-19T03:16:04;11.98;;;7.07;;
46415;SDS011;32620;51.704;7.822;2023-11-19T03:18:30;9.38;;;6.43;;
46415;SDS011;32620;51.704;7.822;2023-11-19T03:20:56;12.18;;;6.88;;
46415;SDS011;32620;51.704;7.822;2023-11-19T03:23:23;10.82;;;6.47;;
46415;SDS011;32620;51.704;7.822;2023-11-19T03:25:50;12.10;;;7.20;;
46415;SDS011;32620;51.704;7.822;2023-11-19T03:28:15;13.75;;;6.72;;
46415;SDS011;32620;51.704;7.822;2023-11-19T03:30:41;16.15;;;7.40;;
46415;SDS011;32620;51.704;7.822;2023-11-19T03:33:07;16.00;;;6.80;;
46415;SDS011;32620;51.704;7.822;2023-11-19T03:35:33;15.85;;;7.38;;
46415;SDS011;32620;51.704;7.822;2023-11-19T03:37:58;14.57;;;6.88;;
46415;SDS011;32620;51.704;7.822;2023-11-19T03:40:24;16.40;;;6.47;;
46415;SDS011;32620;51.704;7.822;2023-11-19T03:42:50;16.60;;;7.10;;
46415;SDS011;32620;51.704;7.822;2023-11-19T03:45:16;17.05;;;6.53;;
46415;SDS011;32620;51.704;7.822;2023-11-19T03:47:41;12.57;;;6.60;;
46415;SDS011;32620;51.704;7.822;2023-11-19T03:50:07;13.20;;;6.80;;
46415;SDS011;32620;51.704;7.822;2023-11-19T03:52:34;13.60;;;6.47;;
46415;SDS011;32620;51.704;7.822;2023-11-19T03:55:00;15.77;;;6.43;;
46415;SDS011;32620;51.704;7.822;2023-11-19T03:57:26;19.88;;;6.38;;
46415;SDS011;32620;51.704;7.822;2023-11-19T03:59:52;16.48;;;6.38;;
46415;SDS011;32620;51.704;7.822;2023-11-19T04:02:18;14.82;;;6.80;;
46415;SDS011;32620;51.704;7.822;2023-11-19T04:04:44;20.40;;;7.68;;
46415;SDS011;32620;51.704;7.822;2023-11-19T04:07:09;32.10;;;8.38;;
46415;SDS011;32620;51.704;7.822;2023-11-19T04:09:35;18.17;;;7.78;;
46415;SDS011;32620;51.704;7.822;2023-11-19T04:12:02;20.85;;;7.63;;
46415;SDS011;32620;51.704;7.822;2023-11-19T04:14:29;18.60;;;7.90;;
46415;SDS011;32620;51.704;7.822;2023-11-19T04:16:54;15.23;;;7.85;;
46415;SDS011;32620;51.704;7.822;2023-11-19T04:19:20;23.45;;;9.13;;
46415;SDS011;32620;51.704;7.822;2023-11-19T04:21:46;24.20;;;10.98;;
46415;SDS011;32620;51.704;7.822;2023-11-19T04:24:12;20.33;;;9.95;;
46415;SDS011;32620;51.704;7.822;2023-11-19T04:26:42;16.17;;;8.30;;
46415;SDS011;32620;51.704;7.822;2023-11-19T04:29:11;21.85;;;9.00;;
46415;SDS011;32620;51.704;7.822;2023-11-19T04:31:37;19.98;;;8.35;;
46415;SDS011;32620;51.704;7.822;2023-11-19T04:34:04;15.98;;;7.32;;
46415;SDS011;32620;51.704;7.822;2023-11-19T04:36:31;22.23;;;8.07;;
46415;SDS011;32620;51.704;7.822;2023-11-19T04:38:59;19.45;;;7.50;;
46415;SDS011;32620;51.704;7.822;2023-11-19T04:41:25;20.83;;;6.85;;
46415;SDS011;32620;51.704;7.822;2023-11-19T04:43:52;24.05;;;7.72;;
46415;SDS011;32620;51.704;7.822;2023-11-19T04:46:18;23.10;;;7.07;;
46415;SDS011;32620;51.704;7.822;2023-11-19T04:48:44;17.55;;;7.13;;
46415;SDS011;32620;51.704;7.822;2023-11-19T04:51:10;19.77;;;6.30;;
46415;SDS011;32620;51.704;7.822;2023-11-19T04:53:36;26.77;;;6.63;;
46415;SDS011;32620;51.704;7.822;2023-11-19T04:56:07;22.40;;;6.65;;
46415;SDS011;32620;51.704;7.822;2023-11-19T04:58:34;25.15;;;6.25;;
46415;SDS011;32620;51.704;7.822;2023-11-19T05:01:02;30.55;;;7.50;;
46415;SDS011;32620;51.704;7.822;2023-11-19T05:03:28;25.65;;;6.75;;
46415;SDS011;32620;51.704;7.822;2023-11-19T05:05:54;20.63;;;5.60;;
46415;SDS011;32620;51.704;7.822;2023-11-19T05:08:20;32.50;;;7.03;;
46415;SDS011;32620;51.704;7.822;2023-11-19T05:10:45;34.28;;;6.38;;
46415;SDS011;32620;51.704;7.822;2023-11-19T05:13:11;23.02;;;6.82;;
46415;SDS011;32620;51.704;7.822;2023-11-19T05:15:37;28.38;;;6.35;;
46415;SDS011;32620;51.704;7.822;2023-11-19T05:18:03;30.75;;;6.75;;
46415;SDS011;32620;51.704;7.822;2023-11-19T05:20:29;26.60;;;6.45;;
46415;SDS011;32620;51.704;7.822;2023-11-19T05:22:55;27.60;;;6.28;;
46415;SDS011;32620;51.704;7.822;2023-11-19T05:25:21;23.42;;;6.00;;
46415;SDS011;32620;51.704;7.822;2023-11-19T05:27:47;30.05;;;6.60;;
46415;SDS011;32620;51.704;7.822;2023-11-19T05:30:12;35.58;;;6.72;;
46415;SDS011;32620;51.704;7.822;2023-11-19T05:32:38;30.15;;;6.50;;
46415;SDS011;32620;51.704;7.822;2023-11-19T05:35:04;24.42;;;6.07;;
46415;SDS011;32620;51.704;7.822;2023-11-19T05:37:30;33.58;;;6.78;;
46415;SDS011;32620;51.704;7.822;2023-11-19T05:39:56;34.75;;;7.88;;
46415;SDS011;32620;51.704;7.822;2023-11-19T05:42:21;26.23;;;5.75;;
46415;SDS011;32620;51.704;7.822;2023-11-19T05:44:47;32.70;;;7.10;;
46415;SDS011;32620;51.704;7.822;2023-11-19T05:47:12;32.55;;;6.57;;
46415;SDS011;32620;51.704;7.822;2023-11-19T05:49:38;33.97;;;6.78;;
46415;SDS011;32620;51.704;7.822;2023-11-19T05:52:04;25.50;;;5.95;;
46415;SDS011;32620;51.704;7.822;2023-11-19T05:54:32;29.75;;;6.80;;
46415;SDS011;32620;51.704;7.822;2023-11-19T05:57:03;29.35;;;6.00;;
46415;SDS011;32620;51.704;7.822;2023-11-19T05:59:29;36.80;;;7.03;;
46415;SDS011;32620;51.704;7.822;2023-11-19T06:01:55;32.35;;;6.38;;
46415;SDS011;32620;51.704;7.822;2023-11-19T06:04:22;37.20;;;7.70;;
46415;SDS011;32620;51.704;7.822;2023-11-19T06:06:48;39.13;;;7.47;;
46415;SDS011;32620;51.704;7.822;2023-11-19T06:09:14;40.33;;;7.47;;
46415;SDS011;32620;51.704;7.822;2023-11-19T06:11:39;34.10;;;6.93;;
46415;SDS011;32620;51.704;7.822;2023-11-19T06:14:05;34.03;;;6.80;;
46415;SDS011;32620;51.704;7.822;2023-11-19T06:16:32;32.55;;;6.28;;
46415;SDS011;32620;51.704;7.822;2023-11-19T06:18:58;29.40;;;7.15;;
46415;SDS011;32620;51.704;7.822;2023-11-19T06:21:23;37.05;;;7.70;;
46415;SDS011;32620;51.704;7.822;2023-11-19T06:23:49;38.85;;;8.50;;
46415;SDS011;32620;51.704;7.822;2023-11-19T06:26:17;30.92;;;7.65;;
46415;SDS011;32620;51.704;7.822;2023-11-19T06:28:43;39.45;;;9.23;;
46415;SDS011;32620;51.704;7.822;2023-11-19T06:31:09;35.42;;;7.97;;
46415;SDS011;32620;51.704;7.822;2023-11-19T06:33:35;42.90;;;7.95;;
46415;SDS011;32620;51.704;7.822;2023-11-19T06:36:01;44.45;;;8.85;;
46415;SDS011;32620;51.704;7.822;2023-11-19T06:38:26;34.95;;;7.65;;
46415;SDS011;32620;51.704;7.822;2023-11-19T06:40:52;35.95;;;7.38;;
46415;SDS011;32620;51.704;7.822;2023-11-19T06:43:18;46.47;;;8.23;;
46415;SDS011;32620;51.704;7.822;2023-11-19T06:45:43;38.78;;;7.63;;
46415;SDS011;32620;51.704;7.822;2023-11-19T06:48:09;34.55;;;6.88;;
46415;SDS011;32620;51.704;7.822;2023-11-19T06:50:35;25.48;;;6.50;;
46415;SDS011;32620;51.704;7.822;2023-11-19T06:53:01;33.33;;;6.55;;
46415;SDS011;32620;51.704;7.822;2023-11-19T06:55:27;30.45;;;6.20;;
46415;SDS011;32620;51.704;7.822;2023-11-19T06:57:52;40.58;;;6.90;;
46415;SDS011;32620;51.704;7.822;2023-11-19T07:00:18;32.83;;;6.85;;
46415;SDS011;32620;51.704;7.822;2023-11-19T07:02:44;42.08;;;7.50;;
46415;SDS011;32620;51.704;7.822;2023-11-19T07:05:09;37.53;;;7.05;;
46415;SDS011;32620;51.704;7.822;2023-11-19T07:07:37;36.13;;;7.60;;
46415;SDS011;32620;51.704;7.822;2023-11-19T07:10:03;31.75;;;7.05;;
46415;SDS011;32620;51.704;7.822;2023-11-19T07:12:29;35.65;;;7.38;;
46415;SDS011;32620;51.704;7.822;2023-11-19T07:14:56;30.45;;;6.88;;
46415;SDS011;32620;51.704;7.822;2023-11-19T07:17:21;33.65;;;7.15;;
46415;SDS011;32620;51.704;7.822;2023-11-19T07:19:49;47.15;;;8.52;;
46415;SDS011;32620;51.704;7.822;2023-11-19T07:22:16;41.25;;;9.25;;
46415;SDS011;32620;51.704;7.822;2023-11-19T07:24:41;34.70;;;7.32;;
46415;SDS011;32620;51.704;7.822;2023-11-19T07:27:08;33.70;;;6.97;;
46415;SDS011;32620;51.704;7.822;2023-11-19T07:29:35;39.30;;;7.35;;
46415;SDS011;32620;51.704;7.822;2023-11-19T07:32:00;32.80;;;7.70;;
46415;SDS011;32620;51.704;7.822;2023-11-19T07:34:27;37.63;;;7.22;;
46415;SDS011;32620;51.704;7.822;2023-11-19T07:36:54;36.97;;;6.80;;
46415;SDS011;32620;51.704;7.822;2023-11-19T07:39:22;39.00;;;7.35;;
46415;SDS011;32620;51.704;7.822;2023-11-19T07:41:48;40.22;;;7.80;;
46415;SDS011;32620;51.704;7.822;2023-11-19T07:44:14;33.50;;;7.13;;
46415;SDS011;32620;51.704;7.822;2023-11-19T07:46:40;32.72;;;6.90;;
46415;SDS011;32620;51.704;7.822;2023-11-19T07:49:07;33.25;;;7.47;;
46415;SDS011;32620;51.704;7.822;2023-11-19T07:51:34;40.30;;;7.45;;
46415;SDS011;32620;51.704;7.822;2023-11-19T07:54:01;36.50;;;7.80;;
46415;SDS011;32620;51.704;7.822;2023-11-19T07:56:26;29.20;;;7.70;;
46415;SDS011;32620;51.704;7.822;2023-11-19T07:58:52;39.00;;;8.07;;
46415;SDS011;32620;51.704;7.822;2023-11-19T08:01:18;32.08;;;7.35;;
46415;SDS011;32620;51.704;7.822;2023-11-19T08:03:44;31.13;;;6.93;;
46415;SDS011;32620;51.704;7.822;2023-11-19T08:06:09;43.97;;;8.85;;
46415;SDS011;32620;51.704;7.822;2023-11-19T08:08:35;36.63;;;7.82;;
46415;SDS011;32620;51.704;7.822;2023-11-19T08:11:03;34.95;;;7.63;;
46415;SDS011;32620;51.704;7.822;2023-11-19T08:13:30;37.88;;;8.38;;
46415;SDS011;32620;51.704;7.822;2023-11-19T08:15:56;37.97;;;7.85;;
46415;SDS011;32620;51.704;7.822;2023-11-19T08:18:23;38.97;;;8.75;;
46415;SDS011;32620;51.704;7.822;2023-11-19T08:20:49;36.28;;;8.00;;
46415;SDS011;32620;51.704;7.822;2023-11-19T08:23:18;35.42;;;7.82;;
46415;SDS011;32620;51.704;7.822;2023-11-19T08:25:44;31.38;;;7.45;;
46415;SDS011;32620;51.704;7.822;2023-11-19T08:28:10;32.58;;;7.63;;
46415;SDS011;32620;51.704;7.822;2023-11-19T08:30:35;32.30;;;7.32;;
46415;SDS011;32620;51.704;7.822;2023-11-19T08:33:01;32.00;;;7.68;;
46415;SDS011;32620;51.704;7.822;2023-11-19T08:35:28;39.13;;;8.52;;
46415;SDS011;32620;51.704;7.822;2023-11-19T08:37:55;38.28;;;7.68;;
46415;SDS011;32620;51.704;7.822;2023-11-19T08:40:20;40.28;;;7.63;;
46415;SDS011;32620;51.704;7.822;2023-11-19T08:42:46;33.17;;;6.65;;
46415;SDS011;32620;51.704;7.822;2023-11-19T08:45:11;37.75;;;6.45;;
46415;SDS011;32620;51.704;7.822;2023-11-19T08:47:37;38.35;;;7.82;;
46415;SDS011;32620;51.704;7.822;2023-11-19T08:50:05;35.90;;;8.05;;
46415;SDS011;32620;51.704;7.822;2023-11-19T08:52:31;41.08;;;7.03;;
46415;SDS011;32620;51.704;7.822;2023-11-19T08:54:57;45.58;;;7.68;;
46415;SDS011;32620;51.704;7.822;2023-11-19T08:57:22;42.60;;;8.00;;
46415;SDS011;32620;51.704;7.822;2023-11-19T08:59:48;42.22;;;7.88;;
46415;SDS011;32620;51.704;7.822;2023-11-19T09:02:14;33.58;;;7.45;;
46415;SDS011;32620;51.704;7.822;2023-11-19T09:04:41;30.80;;;6.75;;
46415;SDS011;32620;51.704;7.822;2023-11-19T09:07:07;44.40;;;7.47;;
46415;SDS011;32620;51.704;7.822;2023-11-19T09:09:34;41.17;;;7.75;;
46415;SDS011;32620;51.704;7.822;2023-11-19T09:12:01;31.02;;;6.85;;
46415;SDS011;32620;51.704;7.822;2023-11-19T09:14:28;34.70;;;7.22;;
46415;SDS011;32620;51.704;7.822;2023-11-19T09:16:55;34.13;;;6.93;;
46415;SDS011;32620;51.704;7.822;2023-11-19T09:19:21;36.47;;;6.75;;
46415;SDS011;32620;51.704;7.822;2023-11-19T09:21:46;35.65;;;6.47;;
46415;SDS011;32620;51.704;7.822;2023-11-19T09:24:13;38.65;;;6.85;;
46415;SDS011;32620;51.704;7.822;2023-11-19T09:26:38;30.60;;;6.40;;
46415;SDS011;32620;51.704;7.822;2023-11-19T09:29:06;44.90;;;6.75;;
46415;SDS011;32620;51.704;7.822;2023-11-19T09:31:32;34.42;;;7.30;;
46415;SDS011;32620;51.704;7.822;2023-11-19T09:33:58;41.13;;;7.40;;
46415;SDS011;32620;51.704;7.822;2023-11-19T09:36:24;40.50;;;7.28;;
46415;SDS011;32620;51.704;7.822;2023-11-19T09:38:49;33.38;;;6.10;;
46415;SDS011;32620;51.704;7.822;2023-11-19T09:41:15;31.17;;;6.57;;
46415;SDS011;32620;51.704;7.822;2023-11-19T09:43:41;49.53;;;9.13;;
46415;SDS011;32620;51.704;7.822;2023-11-19T09:46:09;36.90;;;6.85;;
46415;SDS011;32620;51.704;7.822;2023-11-19T09:48:37;40.30;;;7.57;;
46415;SDS011;32620;51.704;7.822;2023-11-19T09:51:04;38.33;;;6.93;;
46415;SDS011;32620;51.704;7.822;2023-11-19T09:53:30;40.72;;;7.45;;
46415;SDS011;32620;51.704;7.822;2023-11-19T09:55:57;45.95;;;7.95;;
46415;SDS011;32620;51.704;7.822;2023-11-19T09:58:26;34.55;;;5.93;;
46415;SDS011;32620;51.704;7.822;2023-11-19T10:00:51;39.78;;;6.80;;
46415;SDS011;32620;51.704;7.822;2023-11-19T10:03:17;39.83;;;7.57;;
46415;SDS011;32620;51.704;7.822;2023-11-19T10:05:43;34.78;;;7.20;;
46415;SDS011;32620;51.704;7.822;2023-11-19T10:08:08;35.25;;;7.18;;
46415;SDS011;32620;51.704;7.822;2023-11-19T10:10:36;36.38;;;7.10;;
46415;SDS011;32620;51.704;7.822;2023-11-19T10:13:02;40.97;;;7.28;;
46415;SDS011;32620;51.704;7.822;2023-11-19T10:15:28;41.72;;;8.05;;
46415;SDS011;32620;51.704;7.822;2023-11-19T10:18:00;33.25;;;7.20;;
46415;SDS011;32620;51.704;7.822;2023-11-19T10:20:26;34.35;;;7.22;;
46415;SDS011;32620;51.704;7.822;2023-11-19T10:22:53;41.60;;;8.13;;
46415;SDS011;32620;51.704;7.822;2023-11-19T10:25:21;38.63;;;7.18;;
46415;SDS011;32620;51.704;7.822;2023-11-19T10:27:52;34.50;;;7.65;;
46415;SDS011;32620;51.704;7.822;2023-11-19T10:30:21;34.88;;;7.30;;
46415;SDS011;32620;51.704;7.822;2023-11-19T10:33:02;39.20;;;7.45;;
46415;SDS011;32620;51.704;7.822;2023-11-19T10:35:31;33.72;;;7.10;;
46415;SDS011;32620;51.704;7.822;2023-11-19T10:38:14;42.80;;;8.15;;
46415;SDS011;32620;51.704;7.822;2023-11-19T10:40:41;33.03;;;7.43;;
46415;SDS011;32620;51.704;7.822;2023-11-19T10:43:07;36.97;;;7.10;;
46415;SDS011;32620;51.704;7.822;2023-11-19T10:45:35;37.60;;;6.88;;
46415;SDS011;32620;51.704;7.822;2023-11-19T10:48:02;43.17;;;7.82;;
46415;SDS011;32620;51.704;7.822;2023-11-19T10:50:32;45.90;;;7.75;;
46415;SDS011;32620;51.704;7.822;2023-11-19T10:52:59;41.90;;;7.35;;
46415;SDS011;32620;51.704;7.822;2023-11-19T10:55:26;36.15;;;6.93;;
46415;SDS011;32620;51.704;7.822;2023-11-19T10:57:54;36.53;;;7.05;;
46415;SDS011;32620;51.704;7.822;2023-11-19T11:00:24;43.88;;;7.28;;
46415;SDS011;32620;51.704;7.822;2023-11-19T11:02:52;38.50;;;7.85;;
46415;SDS011;32620;51.704;7.822;2023-11-19T11:05:21;41.70;;;7.68;;
46415;SDS011;32620;51.704;7.822;2023-11-19T11:07:48;39.72;;;8.43;;
46415;SDS011;32620;51.704;7.822;2023-11-19T11:10:16;42.88;;;7.95;;
46415;SDS011;32620;51.704;7.822;2023-11-19T11:12:43;38.08;;;7.80;;
46415;SDS011;32620;51.704;7.822;2023-11-19T11:15:11;34.25;;;7.15;;
46415;SDS011;32620;51.704;7.822;2023-11-19T11:17:38;33.20;;;6.05;;
46415;SDS011;32620;51.704;7.822;2023-11-19T11:20:05;35.45;;;7.22;;
46415;SDS011;32620;51.704;7.822;2023-11-19T11:22:36;46.65;;;8.13;;
46415;SDS011;32620;51.704;7.822;2023-11-19T11:25:22;42.20;;;9.00;;
46415;SDS011;32620;51.704;7.822;2023-11-19T11:28:03;37.22;;;7.00;;
46415;SDS011;32620;51.704;7.822;2023-11-19T11:37:03;40.97;;;7.13;;
46415;SDS011;32620;51.704;7.822;2023-11-19T11:39:43;43.53;;;7.07;;
46415;SDS011;32620;51.704;7.822;2023-11-19T11:45:08;34.60;;;7.18;;
46415;SDS011;32620;51.704;7.822;2023-11-19T11:50:19;41.40;;;7.30;;
46415;SDS011;32620;51.704;7.822;2023-11-19T11:55:51;33.75;;;6.82;;
46415;SDS011;32620;51.704;7.822;2023-11-19T11:58:20;36.63;;;7.22;;
46415;SDS011;32620;51.704;7.822;2023-11-19T12:00:47;33.83;;;6.15;;
46415;SDS011;32620;51.704;7.822;2023-11-19T12:03:14;37.95;;;7.28;;
46415;SDS011;32620;51.704;7.822;2023-11-19T12:05:41;38.42;;;7.20;;
46415;SDS011;32620;51.704;7.822;2023-11-19T12:08:08;45.92;;;7.50;;
46415;SDS011;32620;51.704;7.822;2023-11-19T12:10:37;30.52;;;6.68;;
46415;SDS011;32620;51.704;7.822;2023-11-19T12:16:16;35.17;;;6.88;;
46415;SDS011;32620;51.704;7.822;2023-11-19T12:18:34;38.17;;;7.60;;
46415;SDS011;32620;51.704;7.822;2023-11-19T12:21:00;32.42;;;6.45;;
46415;SDS011;32620;51.704;7.822;2023-11-19T12:23:27;37.10;;;7.32;;
46415;SDS011;32620;51.704;7.822;2023-11-19T12:25:54;35.22;;;7.15;;
46415;SDS011;32620;51.704;7.822;2023-11-19T12:28:20;34.30;;;6.70;;
46415;SDS011;32620;51.704;7.822;2023-11-19T12:30:46;39.63;;;6.07;;
46415;SDS011;32620;51.704;7.822;2023-11-19T12:33:13;38.47;;;6.80;;
46415;SDS011;32620;51.704;7.822;2023-11-19T12:35:41;36.88;;;6.55;;
46415;SDS011;32620;51.704;7.822;2023-11-19T12:38:07;34.28;;;6.97;;
46415;SDS011;32620;51.704;7.822;2023-11-19T12:40:43;39.63;;;6.68;;
46415;SDS011;32620;51.704;7.822;2023-11-19T12:43:08;34.63;;;6.63;;
46415;SDS011;32620;51.704;7.822;2023-11-19T12:45:35;43.67;;;6.38;;
46415;SDS011;32620;51.704;7.822;2023-11-19T12:48:08;31.17;;;6.32;;
46415;SDS011;32620;51.704;7.822;2023-11-19T12:51:07;31.73;;;6.07;;
46415;SDS011;32620;51.704;7.822;2023-11-19T12:53:22;33.30;;;6.97;;
46415;SDS011;32620;51.704;7.822;2023-11-19T12:55:49;31.25;;;6.03;;
46415;SDS011;32620;51.704;7.822;2023-11-19T12:58:48;33.40;;;6.78;;
46415;SDS011;32620;51.704;7.822;2023-11-19T13:01:04;27.73;;;6.03;;
46415;SDS011;32620;51.704;7.822;2023-11-19T13:03:32;33.00;;;5.97;;
46415;SDS011;32620;51.704;7.822;2023-11-19T13:06:02;31.02;;;6.40;;
46415;SDS011;32620;51.704;7.822;2023-11-19T13:08:40;28.02;;;5.47;;
46415;SDS011;32620;51.704;7.822;2023-11-19T13:11:09;29.25;;;5.82;;
46415;SDS011;32620;51.704;7.822;2023-11-19T13:14:08;23.38;;;5.72;;
46415;SDS011;32620;51.704;7.822;2023-11-19T13:16:25;24.67;;;5.38;;
46415;SDS011;32620;51.704;7.822;2023-11-19T13:18:52;28.15;;;5.10;;
46415;SDS011;32620;51.704;7.822;2023-11-19T13:21:17;39.28;;;6.13;;
46415;SDS011;32620;51.704;7.822;2023-11-19T13:23:43;24.60;;;5.47;;
46415;SDS011;32620;51.704;7.822;2023-11-19T13:26:09;33.20;;;5.97;;
46415;SDS011;32620;51.704;7.822;2023-11-19T13:28:36;23.90;;;5.30;;
46415;SDS011;32620;51.704;7.822;2023-11-19T13:31:02;27.55;;;6.43;;
46415;SDS011;32620;51.704;7.822;2023-11-19T13:33:28;32.38;;;5.32;;
46415;SDS011;32620;51.704;7.822;2023-11-19T13:35:54;27.67;;;5.10;;
46415;SDS011;32620;51.704;7.822;2023-11-19T13:38:20;28.17;;;5.50;;
46415;SDS011;32620;51.704;7.822;2023-11-19T13:40:46;27.13;;;5.68;;
46415;SDS011;32620;51.704;7.822;2023-11-19T13:43:11;32.47;;;5.57;;
46415;SDS011;32620;51.704;7.822;2023-11-19T13:45:37;34.92;;;5.75;;
46415;SDS011;32620;51.704;7.822;2023-11-19T13:48:03;34.42;;;5.38;;
46415;SDS011;32620;51.704;7.822;2023-11-19T13:50:28;30.20;;;5.68;;
46415;SDS011;32620;51.704;7.822;2023-11-19T13:52:54;27.00;;;5.10;;
46415;SDS011;32620;51.704;7.822;2023-11-19T13:55:20;29.15;;;5.93;;
46415;SDS011;32620;51.704;7.822;2023-11-19T13:57:45;27.02;;;5.97;;
46415;SDS011;32620;51.704;7.822;2023-11-19T14:00:12;26.58;;;5.40;;
46415;SDS011;32620;51.704;7.822;2023-11-19T14:02:39;29.55;;;6.05;;
46415;SDS011;32620;51.704;7.822;2023-11-19T14:05:05;34.13;;;5.88;;
46415;SDS011;32620;51.704;7.822;2023-11-19T14:07:32;28.42;;;5.65;;
46415;SDS011;32620;51.704;7.822;2023-11-19T14:09:57;29.38;;;6.15;;
46415;SDS011;32620;51.704;7.822;2023-11-19T14:12:23;28.17;;;7.30;;
46415;SDS011;32620;51.704;7.822;2023-11-19T14:14:49;30.35;;;5.70;;
46415;SDS011;32620;51.704;7.822;2023-11-19T14:17:14;23.08;;;5.47;;
46415;SDS011;32620;51.704;7.822;2023-11-19T14:19:41;34.03;;;6.95;;
46415;SDS011;32620;51.704;7.822;2023-11-19T14:22:07;25.67;;;5.57;;
46415;SDS011;32620;51.704;7.822;2023-11-19T14:24:33;31.40;;;5.88;;
46415;SDS011;32620;51.704;7.822;2023-11-19T14:27:00;29.13;;;5.60;;
46415;SDS011;32620;51.704;7.822;2023-11-19T14:29:26;28.15;;;5.45;;
46415;SDS011;32620;51.704;7.822;2023-11-19T14:31:53;30.20;;;5.85;;
46415;SDS011;32620;51.704;7.822;2023-11-19T14:34:19;19.48;;;4.97;;
46415;SDS011;32620;51.704;7.822;2023-11-19T14:36:45;27.42;;;6.18;;
46415;SDS011;32620;51.704;7.822;2023-11-19T14:39:11;24.17;;;5.28;;
46415;SDS011;32620;51.704;7.822;2023-11-19T14:41:36;26.77;;;5.30;;
46415;SDS011;32620;51.704;7.822;2023-11-19T14:44:02;33.00;;;6.10;;
46415;SDS011;32620;51.704;7.822;2023-11-19T14:46:28;29.45;;;5.95;;
46415;SDS011;32620;51.704;7.822;2023-11-19T14:48:54;28.77;;;5.68;;
46415;SDS011;32620;51.704;7.822;2023-11-19T14:51:20;26.35;;;5.25;;